Time;durP1;ratioP1;P1;durP2;ratioP2;P2;SDS_P1;SDS_P2;PMS_P1;PMS_P2;Temp;Humidity;BMP_temperature;BMP_pressure;BME280_temperature;BME280_humidity;BME280_pressure;Samples;Min_cycle;Max_cycle;Signal;HPM_P1;HPM_P2
2022/10/01 00:00:12;;;;;;;2.37;1.87;;;13.70;93.30;;;;;;5048434;28;20620;-80
2022/10/01 00:02:38;;;;;;;2.40;1.90;;;13.70;93.40;;;;;;5072295;28;20111;-79
2022/10/01 00:05:09;;;;;;;2.53;1.90;;;13.70;93.60;;;;;;5070876;28;20129;-80
2022/10/01 00:07:43;;;;;;;4.43;2.40;;;13.70;93.70;;;;;;5069209;28;20016;-79
2022/10/01 00:10:11;;;;;;;3.33;2.30;;;13.60;93.90;;;;;;5074775;28;20122;-80
2022/10/01 00:12:38;;;;;;;2.75;1.88;;;13.60;94.00;;;;;;5065246;28;20063;-78
2022/10/01 00:15:08;;;;;;;2.53;1.90;;;13.60;94.20;;;;;;5062821;28;20874;-80
2022/10/01 00:17:35;;;;;;;2.53;1.60;;;13.60;94.40;;;;;;5073815;28;20028;-79
2022/10/01 00:20:01;;;;;;;2.03;1.58;;;13.60;94.60;;;;;;5058897;28;24672;-79
2022/10/01 00:22:30;;;;;;;2.60;1.77;;;13.60;94.70;;;;;;5068267;28;20028;-79
2022/10/01 00:24:58;;;;;;;2.30;1.80;;;13.60;94.90;;;;;;5083291;28;20738;-79
2022/10/01 00:27:27;;;;;;;3.35;1.88;;;13.60;95.00;;;;;;5078152;28;20096;-79
2022/10/01 00:29:53;;;;;;;2.80;1.80;;;13.60;95.10;;;;;;5085471;28;20130;-79
2022/10/01 00:32:20;;;;;;;3.35;1.92;;;13.60;95.30;;;;;;5065168;28;20016;-80
2022/10/01 00:34:46;;;;;;;1.70;1.50;;;13.60;95.50;;;;;;5079749;28;20101;-80
2022/10/01 00:37:11;;;;;;;2.00;1.40;;;13.60;95.60;;;;;;5054996;28;20078;-79
2022/10/01 00:39:37;;;;;;;2.83;1.50;;;13.60;95.80;;;;;;5087051;28;20062;-79
2022/10/01 00:42:17;;;;;;;2.60;1.70;;;13.60;95.90;;;;;;5079481;28;20409;-79
2022/10/01 00:44:43;;;;;;;1.83;1.60;;;13.60;96.00;;;;;;5051658;28;20020;-81
2022/10/01 00:47:18;;;;;;;2.30;1.70;;;13.60;96.20;;;;;;5067029;28;20043;-79
2022/10/01 00:49:46;;;;;;;2.50;1.40;;;13.60;96.30;;;;;;5069028;28;20043;-80
2022/10/01 00:52:17;;;;;;;1.85;1.40;;;13.60;96.40;;;;;;5046898;28;20132;-79
2022/10/01 00:54:51;;;;;;;1.70;1.33;;;13.60;96.50;;;;;;5085610;28;20480;-79
2022/10/01 00:57:20;;;;;;;2.47;1.40;;;13.60;96.60;;;;;;5074485;28;20308;-79
2022/10/01 00:59:48;;;;;;;2.03;1.50;;;13.60;96.80;;;;;;5069193;28;20633;-81
2022/10/01 01:02:14;;;;;;;2.90;1.23;;;13.60;96.90;;;;;;5067608;28;20034;-82
2022/10/01 01:04:40;;;;;;;1.40;1.20;;;13.60;97.00;;;;;;5051873;28;20318;-81
2022/10/01 01:07:07;;;;;;;2.05;1.30;;;13.60;97.10;;;;;;5091516;28;20034;-81
2022/10/01 01:09:36;;;;;;;1.17;1.00;;;13.60;97.20;;;;;;5038177;28;20025;-80
2022/10/01 01:12:33;;;;;;;2.03;1.00;;;13.60;97.40;;;;;;5075652;28;20137;-80
2022/10/01 01:15:14;;;;;;;1.40;1.08;;;13.60;97.50;;;;;;5077980;28;20448;-82
2022/10/01 01:17:45;;;;;;;1.25;1.02;;;13.60;97.50;;;;;;5057129;28;20029;-83
2022/10/01 01:20:28;;;;;;;1.00;0.90;;;13.60;97.60;;;;;;5054095;28;20109;-85
2022/10/01 01:23:14;;;;;;;1.27;0.80;;;13.60;97.70;;;;;;5054043;28;20278;-82
2022/10/01 01:26:23;;;;;;;1.13;1.00;;;13.60;97.80;;;;;;5083089;28;20031;-81
2022/10/01 01:28:56;;;;;;;0.88;0.80;;;13.60;97.90;;;;;;4985358;28;20646;-81
2022/10/01 01:31:26;;;;;;;1.92;1.08;;;13.60;98.00;;;;;;5072241;28;20034;-82
2022/10/01 01:33:54;;;;;;;1.40;0.98;;;13.60;98.20;;;;;;5060837;28;20133;-81
2022/10/01 01:36:32;;;;;;;1.85;1.20;;;13.60;98.20;;;;;;5063785;28;20016;-81
2022/10/01 01:39:03;;;;;;;0.80;0.80;;;13.60;98.40;;;;;;5043470;28;20087;-80
2022/10/01 01:41:34;;;;;;;1.50;0.90;;;13.60;98.40;;;;;;5056504;28;20457;-83
2022/10/01 01:44:01;;;;;;;1.20;0.90;;;13.60;98.50;;;;;;5080226;28;20076;-82
2022/10/01 01:46:33;;;;;;;1.50;0.95;;;13.60;98.70;;;;;;5066452;28;20024;-82
2022/10/01 01:49:04;;;;;;;0.90;0.77;;;13.60;98.70;;;;;;5058174;28;20364;-81
2022/10/01 01:51:52;;;;;;;0.90;0.70;;;13.60;98.80;;;;;;5050572;28;20028;-84
2022/10/01 01:54:19;;;;;;;2.28;0.90;;;13.60;98.90;;;;;;5083721;28;20528;-81
2022/10/01 01:56:45;;;;;;;1.00;0.90;;;13.60;99.00;;;;;;5043536;28;20036;-80
2022/10/01 01:59:12;;;;;;;1.83;0.75;;;13.70;99.20;;;;;;5070405;28;20027;-82
2022/10/01 02:01:40;;;;;;;1.63;0.80;;;13.70;99.20;;;;;;5079445;28;20054;-81
2022/10/01 02:04:19;;;;;;;0.70;0.70;;;13.70;99.30;;;;;;5060839;28;20104;-82
2022/10/01 02:07:21;;;;;;;1.27;0.80;;;13.70;99.30;;;;;;5074901;28;20233;-82
2022/10/01 02:10:07;;;;;;;1.75;0.80;;;13.70;99.40;;;;;;5058737;28;20036;-83
2022/10/01 02:12:51;;;;;;;0.60;0.60;;;13.70;99.40;;;;;;5056349;28;20072;-83
2022/10/01 02:15:52;;;;;;;0.85;0.60;;;13.70;99.50;;;;;;5057594;28;20248;-83
2022/10/01 02:18:39;;;;;;;0.50;0.50;;;13.70;99.50;;;;;;5073264;28;20617;-83
2022/10/01 02:21:18;;;;;;;0.88;0.60;;;13.70;99.60;;;;;;5071852;28;20289;-83
2022/10/01 02:23:52;;;;;;;0.50;0.50;;;13.70;99.70;;;;;;5077325;28;20032;-85
2022/10/01 02:26:22;;;;;;;0.47;0.47;;;13.80;99.80;;;;;;5055804;28;20032;-83
2022/10/01 02:28:52;;;;;;;0.70;0.70;;;13.80;99.90;;;;;;5075563;28;20496;-83
2022/10/01 02:31:20;;;;;;;0.50;0.47;;;13.80;99.90;;;;;;5062615;28;20762;-84
2022/10/01 02:33:47;;;;;;;0.45;0.45;;;13.80;99.90;;;;;;5063332;28;20032;-82
2022/10/01 02:36:15;;;;;;;0.70;0.70;;;13.90;99.90;;;;;;5059294;28;20557;-84
2022/10/01 02:38:44;;;;;;;0.80;0.52;;;13.90;99.90;;;;;;5062893;28;20103;-83
2022/10/01 02:41:12;;;;;;;0.60;0.60;;;13.90;99.90;;;;;;5071295;28;20710;-82
2022/10/01 02:43:50;;;;;;;0.60;0.60;;;13.90;99.90;;;;;;5063597;28;20035;-83
2022/10/01 02:46:27;;;;;;;0.52;0.50;;;14.00;99.90;;;;;;5074196;28;20039;-82
2022/10/01 02:48:53;;;;;;;0.50;0.50;;;14.00;99.90;;;;;;5047894;28;20091;-82
2022/10/01 02:51:34;;;;;;;0.60;0.60;;;14.00;99.90;;;;;;5060383;28;20597;-83
2022/10/01 02:54:44;;;;;;;0.60;0.60;;;14.00;99.90;;;;;;5063209;28;20044;-81
2022/10/01 02:57:25;;;;;;;0.60;0.60;;;14.10;99.90;;;;;;5022847;28;20050;-83
2022/10/01 02:59:55;;;;;;;0.60;0.60;;;14.10;99.90;;;;;;5064204;28;20074;-80
2022/10/01 03:02:26;;;;;;;0.50;0.50;;;14.10;99.90;;;;;;5078910;28;20594;-82
2022/10/01 03:04:52;;;;;;;0.60;0.50;;;14.20;99.90;;;;;;5081493;28;20291;-81
2022/10/01 03:07:17;;;;;;;0.40;0.40;;;14.20;99.90;;;;;;5038812;28;20698;-83
2022/10/01 03:09:43;;;;;;;0.93;0.40;;;14.20;99.90;;;;;;5064580;28;20024;-83
2022/10/01 03:12:09;;;;;;;0.50;0.50;;;14.20;99.90;;;;;;5071601;28;20469;-82
2022/10/01 03:14:38;;;;;;;0.57;0.57;;;14.20;99.90;;;;;;5073656;28;20243;-82
2022/10/01 03:17:05;;;;;;;0.40;0.40;;;14.30;99.90;;;;;;5060861;28;20012;-82
2022/10/01 03:19:30;;;;;;;0.40;0.40;;;14.20;99.90;;;;;;5074064;28;20027;-81
2022/10/01 03:21:56;;;;;;;0.40;0.40;;;14.30;99.90;;;;;;5048419;28;20085;-82
2022/10/01 03:24:21;;;;;;;0.60;0.45;;;14.30;99.90;;;;;;5082386;28;20028;-82
2022/10/01 03:26:47;;;;;;;0.43;0.43;;;14.30;99.90;;;;;;5071678;28;20036;-81
2022/10/01 03:29:13;;;;;;;0.57;0.50;;;14.30;99.90;;;;;;5056357;28;20019;-81
2022/10/01 03:31:39;;;;;;;0.60;0.52;;;14.30;99.90;;;;;;5085234;28;20016;-82
2022/10/01 03:34:05;;;;;;;0.50;0.50;;;14.30;99.90;;;;;;5068780;28;20364;-82
2022/10/01 03:36:30;;;;;;;1.05;0.55;;;14.30;99.90;;;;;;5077686;28;20099;-83
2022/10/01 03:38:56;;;;;;;0.70;0.70;;;14.30;99.90;;;;;;5063315;28;20175;-82
2022/10/01 03:41:22;;;;;;;0.70;0.67;;;14.30;99.90;;;;;;5062641;28;20473;-82
2022/10/01 03:43:47;;;;;;;0.60;0.60;;;14.30;99.90;;;;;;5056532;28;20035;-81
2022/10/01 03:46:13;;;;;;;1.07;0.70;;;14.30;99.90;;;;;;5077321;28;20028;-81
2022/10/01 03:48:39;;;;;;;0.80;0.68;;;14.30;99.90;;;;;;5045704;28;20047;-81
2022/10/01 03:51:05;;;;;;;1.73;0.80;;;14.30;99.90;;;;;;5083295;28;20271;-82
2022/10/01 03:53:30;;;;;;;0.75;0.75;;;14.40;99.90;;;;;;5071270;28;20016;-82
2022/10/01 03:55:57;;;;;;;2.35;0.98;;;14.40;99.90;;;;;;5047939;28;20776;-81
2022/10/01 03:58:23;;;;;;;1.90;0.90;;;14.40;99.90;;;;;;5084049;28;20039;-82
2022/10/01 04:00:50;;;;;;;0.70;0.70;;;14.40;99.90;;;;;;5038771;28;20114;-82
2022/10/01 04:03:17;;;;;;;0.85;0.85;;;14.40;99.90;;;;;;5059485;28;20489;-83
2022/10/01 04:05:44;;;;;;;0.88;0.88;;;14.50;99.90;;;;;;5070477;28;20046;-82
2022/10/01 04:08:11;;;;;;;1.08;0.90;;;14.50;99.90;;;;;;5052343;28;20035;-83
2022/10/01 04:10:37;;;;;;;0.80;0.80;;;14.50;99.90;;;;;;5068447;28;20479;-82
2022/10/01 04:13:03;;;;;;;0.80;0.80;;;14.60;99.90;;;;;;5078795;28;20246;-82
2022/10/01 04:15:29;;;;;;;0.90;0.80;;;14.60;99.90;;;;;;5061668;28;20096;-81
2022/10/01 04:17:55;;;;;;;1.15;0.90;;;14.60;99.90;;;;;;5062402;28;20281;-82
2022/10/01 04:20:21;;;;;;;1.00;0.90;;;14.70;99.90;;;;;;5071082;28;20024;-81
2022/10/01 04:22:46;;;;;;;1.00;0.80;;;14.70;99.90;;;;;;5067690;28;20488;-81
2022/10/01 04:25:12;;;;;;;1.08;0.98;;;14.70;99.90;;;;;;5077053;28;20051;-83
2022/10/01 04:27:55;;;;;;;1.77;1.00;;;14.80;99.90;;;;;;5072128;28;20048;-82
2022/10/01 04:30:21;;;;;;;1.20;0.90;;;14.80;99.90;;;;;;5069427;28;21095;-81
2022/10/01 04:32:47;;;;;;;0.73;0.73;;;14.80;99.90;;;;;;5051999;28;20017;-83
2022/10/01 04:35:12;;;;;;;1.83;0.80;;;14.80;99.90;;;;;;5070237;28;20024;-82
2022/10/01 04:37:38;;;;;;;1.73;0.77;;;14.80;99.90;;;;;;5060834;28;20028;-81
2022/10/01 04:40:04;;;;;;;0.75;0.75;;;14.90;99.90;;;;;;5057119;28;20039;-81
2022/10/01 04:42:30;;;;;;;0.95;0.80;;;14.90;99.90;;;;;;5048120;28;20247;-82
2022/10/01 04:44:56;;;;;;;0.80;0.80;;;14.90;99.90;;;;;;5069500;28;20562;-82
2022/10/01 04:47:22;;;;;;;1.20;0.90;;;15.00;99.90;;;;;;5038693;28;20028;-81
2022/10/01 04:49:47;;;;;;;0.77;0.70;;;15.00;99.90;;;;;;5056505;28;20040;-81
2022/10/01 04:52:13;;;;;;;0.70;0.70;;;15.00;99.90;;;;;;5078501;28;20077;-83
2022/10/01 04:54:39;;;;;;;1.43;1.30;;;15.00;99.90;;;;;;5073255;28;20040;-81
2022/10/01 04:57:04;;;;;;;1.00;0.90;;;15.10;99.90;;;;;;5045166;28;20284;-81
2022/10/01 04:59:30;;;;;;;1.50;0.90;;;15.10;99.90;;;;;;5068370;28;20047;-80
2022/10/01 05:01:56;;;;;;;1.35;0.90;;;15.10;99.90;;;;;;5038328;28;20499;-83
2022/10/01 05:04:22;;;;;;;0.70;0.70;;;15.10;99.90;;;;;;5061548;28;20057;-81
2022/10/01 05:06:47;;;;;;;1.00;0.70;;;15.10;99.90;;;;;;5061266;28;20024;-82
2022/10/01 05:09:13;;;;;;;0.80;0.73;;;15.20;99.90;;;;;;5053621;28;20393;-80
2022/10/01 05:11:39;;;;;;;0.73;0.70;;;15.20;99.90;;;;;;5067256;28;20025;-81
2022/10/01 05:14:04;;;;;;;1.67;0.90;;;15.20;99.90;;;;;;5063766;28;20024;-82
2022/10/01 05:16:30;;;;;;;0.90;0.80;;;15.20;99.90;;;;;;5070074;28;20755;-83
2022/10/01 05:18:56;;;;;;;0.80;0.80;;;15.20;99.90;;;;;;5071233;28;20024;-81
2022/10/01 05:21:21;;;;;;;1.50;0.80;;;15.20;99.90;;;;;;5065662;28;20301;-83
2022/10/01 05:23:47;;;;;;;1.40;0.80;;;15.20;99.90;;;;;;5069812;28;20039;-83
2022/10/01 05:26:12;;;;;;;1.00;0.90;;;15.30;99.90;;;;;;5067072;28;20207;-83
2022/10/01 05:28:43;;;;;;;1.00;0.90;;;15.30;99.90;;;;;;5053021;28;20032;-84
2022/10/01 05:31:09;;;;;;;1.50;0.90;;;15.30;99.90;;;;;;5066531;28;20033;-82
2022/10/01 05:33:35;;;;;;;1.10;0.90;;;15.30;99.90;;;;;;5051988;28;20035;-80
2022/10/01 05:36:03;;;;;;;1.10;1.00;;;15.30;99.90;;;;;;5059338;28;20220;-81
2022/10/01 05:38:29;;;;;;;1.20;1.10;;;15.30;99.90;;;;;;5051349;28;20492;-82
2022/10/01 05:40:55;;;;;;;1.10;1.00;;;15.30;99.90;;;;;;5046381;28;20567;-81
2022/10/01 05:43:20;;;;;;;1.47;1.10;;;15.40;99.90;;;;;;5044129;28;20595;-83
2022/10/01 05:45:46;;;;;;;1.58;1.00;;;15.40;99.90;;;;;;5085121;28;20019;-82
2022/10/01 05:48:12;;;;;;;1.23;1.00;;;15.40;99.90;;;;;;5067051;28;20229;-82
2022/10/01 05:50:42;;;;;;;1.02;0.93;;;15.50;99.90;;;;;;5072798;27;20031;-82
2022/10/01 05:53:10;;;;;;;1.40;1.00;;;15.50;99.90;;;;;;5049995;28;20024;-82
2022/10/01 05:55:36;;;;;;;1.50;1.00;;;15.50;99.90;;;;;;5064925;28;20731;-82
2022/10/01 05:58:10;;;;;;;2.05;1.13;;;15.50;99.90;;;;;;5054265;28;20052;-81
2022/10/01 06:00:37;;;;;;;2.40;1.27;;;15.50;99.90;;;;;;5070714;27;20067;-82
2022/10/01 06:03:04;;;;;;;1.30;1.00;;;15.60;99.90;;;;;;5068784;28;20601;-82
2022/10/01 06:05:31;;;;;;;2.53;1.10;;;15.50;99.90;;;;;;5057056;28;20162;-82
2022/10/01 06:07:57;;;;;;;1.60;0.98;;;15.60;99.90;;;;;;5053724;28;20039;-81
2022/10/01 06:10:24;;;;;;;2.30;1.30;;;15.60;99.90;;;;;;5048778;28;20243;-82
2022/10/01 06:12:50;;;;;;;1.43;1.10;;;15.60;99.90;;;;;;5055727;28;20073;-80
2022/10/01 06:15:17;;;;;;;1.00;0.90;;;15.70;99.90;;;;;;5023558;28;20287;-83
2022/10/01 06:17:46;;;;;;;2.03;1.10;;;15.70;99.90;;;;;;5063847;28;20021;-83
2022/10/01 06:20:14;;;;;;;1.33;1.00;;;15.70;99.90;;;;;;5058612;28;20115;-81
2022/10/01 06:22:41;;;;;;;1.38;0.98;;;15.80;99.90;;;;;;5054464;28;20342;-81
2022/10/01 06:25:09;;;;;;;2.20;0.90;;;15.80;99.90;;;;;;5067865;28;20032;-81
2022/10/01 06:27:35;;;;;;;1.88;1.00;;;15.80;99.90;;;;;;5073804;28;20477;-82
2022/10/01 06:30:01;;;;;;;2.13;1.02;;;15.80;99.90;;;;;;5057675;28;20082;-81
2022/10/01 06:32:26;;;;;;;1.10;1.00;;;15.80;99.90;;;;;;5057725;28;20027;-82
2022/10/01 06:34:52;;;;;;;2.00;1.00;;;15.80;99.90;;;;;;5050253;28;20077;-83
2022/10/01 06:37:17;;;;;;;2.17;1.30;;;15.90;99.90;;;;;;5073934;27;20082;-82
2022/10/01 06:39:43;;;;;;;1.95;1.10;;;15.90;99.90;;;;;;5050467;28;20032;-82
2022/10/01 06:42:09;;;;;;;2.57;1.10;;;15.90;99.90;;;;;;5063015;28;20624;-82
2022/10/01 06:44:35;;;;;;;2.22;1.23;;;15.90;99.90;;;;;;5051230;28;20056;-81
2022/10/01 06:47:00;;;;;;;1.33;1.00;;;16.00;99.90;;;;;;5047103;28;20028;-82
2022/10/01 06:49:26;;;;;;;1.17;1.08;;;16.00;99.90;;;;;;5057450;28;20032;-82
2022/10/01 06:54:36;;;;;;;2.38;1.30;;;16.00;99.90;;;;;;5058624;28;20020;-82
2022/10/01 06:57:01;;;;;;;1.87;1.33;;;16.00;99.90;;;;;;5053177;28;20376;-82
2022/10/01 06:59:27;;;;;;;1.60;1.17;;;16.00;99.90;;;;;;5045544;28;20032;-81
2022/10/01 07:01:52;;;;;;;2.90;1.20;;;16.00;99.90;;;;;;5066544;28;20286;-82
2022/10/01 07:04:24;;;;;;;1.77;1.30;;;16.00;99.90;;;;;;5068257;28;20038;-82
2022/10/01 07:06:50;;;;;;;1.88;1.30;;;16.00;99.90;;;;;;5066053;28;20134;-81
2022/10/01 07:09:16;;;;;;;2.40;1.20;;;16.00;99.90;;;;;;5042296;28;20115;-83
2022/10/01 07:11:42;;;;;;;2.25;1.30;;;16.00;99.90;;;;;;5046038;28;20085;-83
2022/10/01 07:14:08;;;;;;;2.73;1.20;;;16.10;99.90;;;;;;5067371;28;20122;-82
2022/10/01 07:16:37;;;;;;;1.77;1.20;;;16.10;99.90;;;;;;5059830;28;20799;-82
2022/10/01 07:19:03;;;;;;;2.70;1.30;;;16.30;99.90;;;;;;5071656;28;20030;-82
2022/10/01 07:21:29;;;;;;;3.27;1.33;;;16.50;99.90;;;;;;5068132;28;20767;-83
2022/10/01 07:23:54;;;;;;;3.00;1.60;;;16.60;99.90;;;;;;5079156;27;20020;-82
2022/10/01 07:26:20;;;;;;;3.57;1.60;;;16.70;99.90;;;;;;5042190;28;20558;-82
2022/10/01 07:28:46;;;;;;;2.10;1.20;;;16.80;99.90;;;;;;5032469;28;20607;-82
2022/10/01 07:31:13;;;;;;;3.33;1.20;;;17.00;99.90;;;;;;5056693;28;20057;-83
2022/10/01 07:33:39;;;;;;;2.00;1.35;;;17.20;99.90;;;;;;5038616;28;20122;-82
2022/10/01 07:36:07;;;;;;;1.92;1.20;;;17.40;99.90;;;;;;5082388;27;20233;-83
2022/10/01 07:38:33;;;;;;;3.08;1.40;;;17.60;99.90;;;;;;5060423;28;20034;-83
2022/10/01 07:41:01;;;;;;;2.63;1.40;;;17.80;99.90;;;;;;5027811;28;20030;-82
2022/10/01 07:43:28;;;;;;;4.72;1.65;;;17.90;99.90;;;;;;5050041;28;20638;-82
2022/10/01 07:45:56;;;;;;;2.83;1.52;;;17.90;99.90;;;;;;5057136;28;20048;-82
2022/10/01 07:48:23;;;;;;;3.47;1.60;;;18.00;99.90;;;;;;5075860;27;20467;-82
2022/10/01 07:50:49;;;;;;;2.92;1.70;;;18.10;99.90;;;;;;5066127;28;20363;-81
2022/10/01 07:53:16;;;;;;;4.17;1.90;;;18.20;99.90;;;;;;5066316;28;20017;-80
2022/10/01 07:55:43;;;;;;;3.35;1.77;;;18.30;99.90;;;;;;5052129;28;20032;-81
2022/10/01 07:58:10;;;;;;;3.50;1.70;;;18.40;99.90;;;;;;5051316;28;20115;-81
2022/10/01 08:00:37;;;;;;;3.53;1.60;;;18.60;99.90;;;;;;5042073;28;20122;-81
2022/10/01 08:03:03;;;;;;;3.42;1.60;;;18.80;99.90;;;;;;5067103;27;20484;-81
2022/10/01 08:05:32;;;;;;;3.27;1.60;;;19.00;99.90;;;;;;5068621;28;20118;-80
2022/10/01 08:08:03;;;;;;;5.13;1.50;;;19.20;99.90;;;;;;5074909;28;20095;-80
2022/10/01 08:10:29;;;;;;;4.18;1.60;;;19.40;99.90;;;;;;5073540;28;20130;-80
2022/10/01 08:13:00;;;;;;;3.58;1.52;;;19.60;99.90;;;;;;5041647;28;20029;-80
2022/10/01 08:15:27;;;;;;;5.18;1.48;;;19.80;99.90;;;;;;5051731;28;20020;-80
2022/10/01 08:17:52;;;;;;;4.37;1.40;;;20.10;99.90;;;;;;5053118;28;20024;-81
2022/10/01 08:20:18;;;;;;;3.20;1.33;;;20.30;99.90;;;;;;5052839;28;20059;-81
2022/10/01 08:22:44;;;;;;;2.90;1.20;;;20.50;99.90;;;;;;5058441;28;20331;-80
2022/10/01 08:25:10;;;;;;;3.60;1.50;;;20.70;99.90;;;;;;5064737;28;20032;-81
2022/10/01 08:27:35;;;;;;;3.77;1.30;;;20.90;99.90;;;;;;5034269;28;20332;-82
2022/10/01 08:30:01;;;;;;;3.15;1.40;;;21.10;99.90;;;;;;5050823;28;20047;-80
2022/10/01 08:32:29;;;;;;;2.40;1.10;;;21.20;99.90;;;;;;5065173;28;20024;-85
2022/10/01 08:34:56;;;;;;;3.97;1.37;;;21.20;99.90;;;;;;5076183;28;20024;-84
2022/10/01 08:37:28;;;;;;;3.58;1.17;;;21.30;99.90;;;;;;5090093;28;20025;-84
2022/10/01 08:39:55;;;;;;;4.10;1.30;;;21.30;99.90;;;;;;5064287;28;20020;-83
2022/10/01 08:42:32;;;;;;;4.00;1.20;;;21.30;99.90;;;;;;5059531;28;20117;-81
2022/10/01 08:45:03;;;;;;;3.65;1.33;;;21.30;99.90;;;;;;5059538;28;20548;-78
2022/10/01 08:47:37;;;;;;;3.93;1.17;;;21.20;99.70;;;;;;5035470;28;20036;-80
2022/10/01 08:50:31;;;;;;;4.60;1.30;;;21.20;99.70;;;;;;5063640;28;20480;-81
2022/10/01 08:53:03;;;;;;;4.22;1.35;;;21.10;99.20;;;;;;5071800;28;20028;-81
2022/10/01 08:55:35;;;;;;;3.00;1.40;;;21.00;99.90;;;;;;5071777;28;20012;-79
2022/10/01 08:58:04;;;;;;;4.03;1.40;;;20.90;99.90;;;;;;5064190;28;20032;-80
2022/10/01 09:00:32;;;;;;;5.20;1.57;;;20.90;99.90;;;;;;5062782;28;20113;-81
2022/10/01 09:03:04;;;;;;;4.95;1.50;;;21.00;99.90;;;;;;5072647;28;20027;-80
2022/10/01 09:05:44;;;;;;;4.28;1.60;;;21.10;99.90;;;;;;5052552;28;20520;-80
2022/10/01 09:08:21;;;;;;;6.20;2.00;;;21.30;99.90;;;;;;5060809;28;20027;-80
2022/10/01 09:11:03;;;;;;;3.17;1.60;;;21.70;99.90;;;;;;5043133;28;20387;-80
2022/10/01 09:14:02;;;;;;;4.07;1.83;;;22.00;99.90;;;;;;5052981;28;20268;-80
2022/10/01 09:16:57;;;;;;;4.50;1.65;;;22.40;99.90;;;;;;5031161;28;20020;-79
2022/10/01 09:19:40;;;;;;;3.83;1.60;;;22.80;99.90;;;;;;5065438;28;20350;-80
2022/10/01 09:22:49;;;;;;;4.90;1.80;;;23.10;99.30;;;;;;5042092;28;20536;-80
2022/10/01 09:25:26;;;;;;;2.67;1.70;;;23.30;99.30;;;;;;5051100;28;20150;-80
2022/10/01 09:28:01;;;;;;;4.10;1.57;;;23.30;97.60;;;;;;5053189;28;20057;-81
2022/10/01 09:30:28;;;;;;;3.90;1.52;;;23.30;97.70;;;;;;5038034;28;20028;-81
2022/10/01 09:33:10;;;;;;;4.65;1.40;;;23.20;99.90;;;;;;5073524;27;20021;-81
2022/10/01 09:35:42;;;;;;;4.65;1.70;;;23.30;99.90;;;;;;5062037;28;20016;-80
2022/10/01 09:38:44;;;;;;;8.13;1.90;;;23.50;99.90;;;;;;5056453;28;20094;-80
2022/10/01 09:41:11;;;;;;;3.27;1.50;;;23.80;99.90;;;;;;5079796;28;20111;-80
2022/10/01 09:43:42;;;;;;;4.88;1.90;;;24.20;99.90;;;;;;5055569;28;20024;-81
2022/10/01 09:46:13;;;;;;;5.95;1.90;;;24.40;99.90;;;;;;5059229;28;20244;-80
2022/10/01 09:49:13;;;;;;;4.45;1.40;;;24.50;99.50;;;;;;5065818;28;20058;-81
2022/10/01 09:51:45;;;;;;;3.05;1.20;;;24.40;96.70;;;;;;5067651;28;20036;-82
2022/10/01 09:54:26;;;;;;;2.87;1.00;;;24.20;94.40;;;;;;5054124;28;20520;-80
2022/10/01 09:57:08;;;;;;;4.32;1.30;;;24.00;94.70;;;;;;5070417;28;20698;-80
2022/10/01 09:59:49;;;;;;;3.75;1.30;;;23.80;94.20;;;;;;5052161;28;20047;-80
2022/10/01 10:02:22;;;;;;;3.92;1.20;;;23.60;96.90;;;;;;5078742;28;20024;-80
2022/10/01 10:05:02;;;;;;;6.53;1.40;;;23.60;98.00;;;;;;5056548;28;20441;-80
2022/10/01 10:07:31;;;;;;;3.33;1.50;;;23.60;97.40;;;;;;5061407;28;20048;-79
2022/10/01 10:10:06;;;;;;;4.82;1.58;;;23.60;99.90;;;;;;5061395;28;20621;-80
2022/10/01 10:12:33;;;;;;;3.58;1.50;;;23.80;99.90;;;;;;5042713;28;20024;-82
2022/10/01 10:15:07;;;;;;;4.93;1.80;;;24.10;99.90;;;;;;5063862;28;20130;-82
2022/10/01 10:17:36;;;;;;;6.43;1.95;;;24.40;99.90;;;;;;5063264;28;20024;-80
2022/10/01 10:20:20;;;;;;;2.57;1.57;;;24.70;99.90;;;;;;5047379;28;20027;-82
2022/10/01 10:22:46;;;;;;;4.38;1.70;;;25.00;98.40;;;;;;5069295;28;20021;-81
2022/10/01 10:25:23;;;;;;;3.27;1.30;;;25.20;99.90;;;;;;5056062;28;20029;-80
2022/10/01 10:27:55;;;;;;;3.33;1.57;;;25.30;97.00;;;;;;5069314;28;20305;-79
2022/10/01 10:30:25;;;;;;;6.78;1.60;;;25.40;98.40;;;;;;5047389;28;20527;-81
2022/10/01 10:33:00;;;;;;;4.38;1.35;;;25.50;98.30;;;;;;5075618;28;20023;-81
2022/10/01 10:35:27;;;;;;;3.55;1.38;;;25.60;98.60;;;;;;5052596;28;20073;-81
2022/10/01 10:37:56;;;;;;;5.35;1.90;;;25.70;99.60;;;;;;5068410;28;20019;-80
2022/10/01 10:40:25;;;;;;;5.73;1.50;;;25.90;99.90;;;;;;5052445;28;20717;-80
2022/10/01 10:42:54;;;;;;;5.65;1.40;;;26.10;98.50;;;;;;5072668;28;20437;-80
2022/10/01 10:45:28;;;;;;;3.15;1.30;;;26.20;97.00;;;;;;5058510;28;20123;-80
2022/10/01 10:47:55;;;;;;;5.43;1.58;;;26.20;95.90;;;;;;5039492;28;20044;-80
2022/10/01 10:50:34;;;;;;;4.00;1.20;;;26.10;96.60;;;;;;5051031;28;20028;-81
2022/10/01 10:53:21;;;;;;;3.63;1.27;;;26.20;95.00;;;;;;5065124;28;20111;-81
2022/10/01 10:55:59;;;;;;;2.72;1.30;;;26.30;94.00;;;;;;5048918;28;20555;-83
2022/10/01 10:58:26;;;;;;;4.28;1.55;;;26.40;95.50;;;;;;5060989;28;21141;-80
2022/10/01 11:00:55;;;;;;;5.85;1.50;;;26.50;98.40;;;;;;5063020;28;20052;-81
2022/10/01 11:03:28;;;;;;;5.97;1.42;;;26.70;97.20;;;;;;5056198;28;20115;-83
2022/10/01 11:06:02;;;;;;;5.20;1.20;;;26.80;93.50;;;;;;5039120;28;20038;-80
2022/10/01 11:08:28;;;;;;;4.97;1.50;;;26.70;93.50;;;;;;5046991;28;20328;-81
2022/10/01 11:10:57;;;;;;;3.25;1.30;;;26.50;91.90;;;;;;5058377;28;20530;-80
2022/10/01 11:13:25;;;;;;;2.90;1.10;;;26.20;90.10;;;;;;5053679;28;20032;-81
2022/10/01 11:16:28;;;;;;;4.33;0.90;;;25.80;90.90;;;;;;5051282;28;20028;-81
2022/10/01 11:19:18;;;;;;;3.67;1.00;;;25.40;84.70;;;;;;5058197;28;20032;-81
2022/10/01 11:21:57;;;;;;;3.08;1.00;;;25.10;87.10;;;;;;5060525;28;21106;-80
2022/10/01 11:24:42;;;;;;;3.95;1.23;;;24.80;88.90;;;;;;5046657;28;20059;-80
2022/10/01 11:27:39;;;;;;;3.47;1.10;;;24.50;79.80;;;;;;5065793;28;20269;-82
2022/10/01 11:30:12;;;;;;;3.07;1.10;;;24.20;88.40;;;;;;5035980;28;20676;-80
2022/10/01 11:32:45;;;;;;;4.82;1.25;;;24.20;92.00;;;;;;5079571;27;20035;-81
2022/10/01 11:35:31;;;;;;;3.67;1.00;;;24.20;93.60;;;;;;5029175;28;20158;-81
2022/10/01 11:38:12;;;;;;;4.63;1.15;;;24.40;92.00;;;;;;5065411;28;20035;-81
2022/10/01 11:40:44;;;;;;;5.00;1.30;;;24.70;95.80;;;;;;5039008;28;20155;-80
2022/10/01 11:43:20;;;;;;;4.63;1.37;;;25.00;98.10;;;;;;5073147;28;20043;-79
2022/10/01 11:45:55;;;;;;;3.38;1.27;;;25.50;96.60;;;;;;5074692;28;20032;-82
2022/10/01 11:48:29;;;;;;;3.72;1.30;;;26.00;98.50;;;;;;5047307;28;20044;-81
2022/10/01 11:51:04;;;;;;;4.82;1.30;;;26.40;99.90;;;;;;5058335;28;20027;-80
2022/10/01 11:53:43;;;;;;;3.85;1.00;;;26.90;95.50;;;;;;5055070;28;21085;-80
2022/10/01 11:59:21;;;;;;;4.72;1.20;;;27.70;92.20;;;;;;5072489;28;20020;-81
2022/10/01 12:02:02;;;;;;;3.08;1.10;;;28.00;87.00;;;;;;5070237;28;20024;-80
2022/10/01 12:04:56;;;;;;;3.42;1.23;;;28.10;89.60;;;;;;5039325;28;20362;-81
2022/10/01 12:07:44;;;;;;;3.97;1.10;;;28.30;89.10;;;;;;5069817;28;20044;-80
2022/10/01 12:10:29;;;;;;;2.97;1.00;;;28.60;90.30;;;;;;5061071;28;20504;-81
2022/10/01 12:13:14;;;;;;;3.95;1.33;;;28.80;85.50;;;;;;5043249;28;20032;-81
2022/10/01 12:15:52;;;;;;;3.47;1.15;;;29.00;91.80;;;;;;5071346;28;20521;-81
2022/10/01 12:18:41;;;;;;;3.53;0.90;;;29.20;93.70;;;;;;5061808;28;20016;-81
2022/10/01 12:21:18;;;;;;;3.60;1.25;;;29.40;90.00;;;;;;5057240;28;20024;-80
2022/10/01 12:24:15;;;;;;;4.17;1.20;;;29.60;91.10;;;;;;5082330;28;20401;-80
2022/10/01 12:27:06;;;;;;;4.03;1.20;;;29.80;87.60;;;;;;5062522;28;20020;-81
2022/10/01 12:29:35;;;;;;;4.75;1.48;;;29.90;82.40;;;;;;5062886;28;20695;-80
2022/10/01 12:32:12;;;;;;;4.10;1.10;;;30.00;90.40;;;;;;5074105;28;20060;-80
2022/10/01 12:34:43;;;;;;;3.08;1.02;;;30.10;88.60;;;;;;5045777;28;20451;-80
2022/10/01 12:37:43;;;;;;;4.17;1.30;;;30.20;92.10;;;;;;5047692;28;20027;-81
2022/10/01 12:40:18;;;;;;;4.50;1.45;;;30.30;76.80;;;;;;5063100;28;20101;-80
2022/10/01 12:43:12;;;;;;;4.10;1.02;;;30.40;86.70;;;;;;5066735;28;20043;-81
2022/10/01 12:45:42;;;;;;;2.85;1.17;;;30.40;73.60;;;;;;5058480;28;20252;-80
2022/10/01 12:48:17;;;;;;;4.00;1.30;;;30.40;86.40;;;;;;5063494;28;20060;-82
2022/10/01 12:50:58;;;;;;;3.13;1.10;;;30.40;88.00;;;;;;5055283;28;20388;-81
2022/10/01 12:53:48;;;;;;;3.92;1.27;;;30.30;81.60;;;;;;5062321;28;20524;-80
2022/10/01 12:56:36;;;;;;;3.22;1.30;;;30.30;82.30;;;;;;5036650;28;20510;-82
2022/10/01 12:59:20;;;;;;;3.78;1.35;;;30.20;74.50;;;;;;5050648;28;20424;-81
2022/10/01 13:02:06;;;;;;;2.78;1.00;;;30.20;75.20;;;;;;5062570;28;20028;-80
2022/10/01 13:04:54;;;;;;;2.20;0.80;;;30.20;88.40;;;;;;5062494;28;20209;-81
2022/10/01 13:07:19;;;;;;;3.38;1.20;;;30.20;76.50;;;;;;5066941;27;20123;-80
2022/10/01 13:09:48;;;;;;;2.50;0.90;;;30.20;87.30;;;;;;5064243;28;20040;-80
2022/10/01 13:13:09;;;;;;;3.40;1.30;;;30.20;84.10;;;;;;5055052;28;20684;-79
2022/10/01 13:15:41;;;;;;;2.75;1.20;;;30.20;77.50;;;;;;5031025;28;20149;-81
2022/10/01 13:18:35;;;;;;;3.03;1.00;;;30.00;79.10;;;;;;5034136;28;20027;-80